Time;durP1;ratioP1;P1;durP2;ratioP2;P2;SDS_P1;SDS_P2;PMS_P1;PMS_P2;Temp;Humidity;BMP_temperature;BMP_pressure;BME280_temperature;BME280_humidity;BME280_pressure;Samples;Min_cycle;Max_cycle;Signal;HPM_P1;HPM_P2
2023/11/27 00:01:32;;;;;;;18.97;17.17;;;;;;;;;;4938993;29;20233;-85
2023/11/27 00:03:58;;;;;;;18.70;16.70;;;;;;;;;;4956828;28;20227;-84
2023/11/27 00:06:26;;;;;;;17.70;15.97;;;;;;;;;;4942738;28;20226;-83
2023/11/27 00:08:51;;;;;;;17.53;15.73;;;;;;;;;;4933214;28;20226;-85
2023/11/27 00:11:17;;;;;;;19.27;17.13;;;;;;;;;;4957325;28;20219;-85
2023/11/27 00:13:44;;;;;;;18.47;16.10;;;;;;;;;;4944142;28;20250;-85
2023/11/27 00:16:10;;;;;;;17.07;15.30;;;;;;;;;;4943241;28;20284;-84
2023/11/27 00:18:38;;;;;;;16.47;14.73;;;;;;;;;;4953978;28;20331;-85
2023/11/27 00:21:06;;;;;;;17.70;15.90;;;;;;;;;;4984262;28;20306;-82
2023/11/27 00:23:34;;;;;;;17.40;15.60;;;;;;;;;;4946202;28;20211;-82
2023/11/27 00:26:01;;;;;;;18.03;14.93;;;;;;;;;;4977367;28;20294;-83
2023/11/27 00:28:27;;;;;;;17.10;15.50;;;;;;;;;;4964592;28;20270;-82
2023/11/27 00:30:53;;;;;;;16.37;14.77;;;;;;;;;;4960376;28;20298;-83
2023/11/27 00:33:21;;;;;;;16.53;14.83;;;;;;;;;;4978590;28;20295;-82
2023/11/27 00:35:47;;;;;;;17.03;15.40;;;;;;;;;;4962943;28;20282;-82
2023/11/27 00:38:18;;;;;;;16.43;14.57;;;;;;;;;;4957083;28;20210;-82
2023/11/27 00:40:47;;;;;;;17.13;15.43;;;;;;;;;;4975858;28;20363;-84
2023/11/27 00:43:15;;;;;;;18.37;16.23;;;;;;;;;;4935560;28;20231;-85
2023/11/27 00:45:40;;;;;;;18.13;14.77;;;;;;;;;;4968421;28;20657;-84
2023/11/27 00:48:08;;;;;;;16.53;14.97;;;;;;;;;;4950045;28;20222;-85
2023/11/27 00:50:33;;;;;;;15.80;14.40;;;;;;;;;;4942127;28;20301;-84
2023/11/27 00:53:01;;;;;;;15.37;13.97;;;;;;;;;;4950116;28;20215;-84
2023/11/27 00:55:27;;;;;;;16.83;15.13;;;;;;;;;;4950309;28;20223;-85
2023/11/27 00:57:55;;;;;;;16.73;15.07;;;;;;;;;;4939854;28;20728;-84
2023/11/27 01:00:23;;;;;;;15.73;14.23;;;;;;;;;;4966513;28;20687;-85
2023/11/27 01:02:52;;;;;;;16.50;15.00;;;;;;;;;;4932608;29;20233;-84
2023/11/27 01:05:20;;;;;;;18.33;16.10;;;;;;;;;;4940697;28;20225;-85
2023/11/27 01:07:46;;;;;;;19.43;17.60;;;;;;;;;;4955957;28;20218;-84
2023/11/27 01:10:13;;;;;;;20.07;17.97;;;;;;;;;;4968579;28;20229;-85
2023/11/27 01:12:47;;;;;;;22.50;18.33;;;;;;;;;;4963492;28;20225;-84
2023/11/27 01:15:12;;;;;;;20.17;18.10;;;;;;;;;;4954910;28;20813;-84
2023/11/27 01:17:43;;;;;;;19.67;17.77;;;;;;;;;;4960113;28;20222;-84
2023/11/27 01:20:09;;;;;;;19.80;17.83;;;;;;;;;;4932491;28;20234;-83
2023/11/27 01:22:37;;;;;;;20.33;17.97;;;;;;;;;;4928660;28;20233;-83
2023/11/27 01:25:06;;;;;;;18.53;16.87;;;;;;;;;;4933547;28;20961;-83
2023/11/27 01:27:32;;;;;;;20.63;18.43;;;;;;;;;;4950604;28;20741;-83
2023/11/27 01:30:03;;;;;;;20.40;18.20;;;;;;;;;;4946367;28;20285;-83
2023/11/27 01:32:29;;;;;;;19.63;17.63;;;;;;;;;;4951153;28;20298;-85
2023/11/27 01:34:55;;;;;;;21.13;18.97;;;;;;;;;;4933326;28;20238;-83
2023/11/27 01:37:22;;;;;;;20.67;17.83;;;;;;;;;;4944495;28;20211;-84
2023/11/27 01:39:53;;;;;;;22.03;19.03;;;;;;;;;;4950244;28;20231;-85
2023/11/27 01:42:21;;;;;;;22.13;17.77;;;;;;;;;;4946977;28;20226;-84
2023/11/27 01:44:46;;;;;;;20.37;18.30;;;;;;;;;;4942067;28;20230;-83
2023/11/27 01:47:16;;;;;;;21.33;18.97;;;;;;;;;;4956052;28;20250;-84
2023/11/27 01:49:45;;;;;;;19.50;17.33;;;;;;;;;;4937004;29;20225;-83
2023/11/27 01:52:13;;;;;;;19.23;17.17;;;;;;;;;;4948166;28;20289;-84
2023/11/27 01:54:46;;;;;;;18.47;16.67;;;;;;;;;;4933431;28;20230;-85
2023/11/27 01:57:19;;;;;;;21.63;17.43;;;;;;;;;;4919758;28;20261;-84
2023/11/27 01:59:45;;;;;;;20.33;16.67;;;;;;;;;;4956972;28;20229;-83
2023/11/27 02:02:12;;;;;;;18.97;17.00;;;;;;;;;;4952950;28;20226;-84
2023/11/27 02:04:39;;;;;;;20.37;18.27;;;;;;;;;;4946893;28;20206;-85
2023/11/27 02:07:07;;;;;;;17.53;15.83;;;;;;;;;;4951734;28;20218;-85
2023/11/27 02:09:38;;;;;;;16.23;14.70;;;;;;;;;;4960695;28;20755;-84
2023/11/27 02:12:06;;;;;;;16.63;15.13;;;;;;;;;;4934309;28;20245;-84
2023/11/27 02:14:33;;;;;;;15.57;14.23;;;;;;;;;;4934839;28;20226;-84
2023/11/27 02:16:59;;;;;;;17.77;16.23;;;;;;;;;;4952233;28;20246;-82
2023/11/27 02:19:27;;;;;;;16.07;14.67;;;;;;;;;;4953458;28;20233;-83
2023/11/27 02:21:54;;;;;;;18.23;16.57;;;;;;;;;;4934029;28;20230;-83
2023/11/27 02:24:22;;;;;;;17.23;15.57;;;;;;;;;;4948437;28;20225;-83
2023/11/27 02:26:50;;;;;;;19.20;17.30;;;;;;;;;;4944455;28;20631;-85
2023/11/27 02:29:18;;;;;;;16.83;14.97;;;;;;;;;;4948404;28;20218;-84
2023/11/27 02:31:51;;;;;;;17.67;15.77;;;;;;;;;;4950900;28;20225;-84
2023/11/27 02:34:19;;;;;;;17.67;15.97;;;;;;;;;;4961379;28;20666;-85
2023/11/27 02:36:47;;;;;;;16.30;14.83;;;;;;;;;;4931706;29;20218;-84
2023/11/27 02:39:14;;;;;;;16.93;15.33;;;;;;;;;;4949116;28;20329;-84
2023/11/27 02:41:44;;;;;;;18.70;16.50;;;;;;;;;;4937673;28;21141;-84
2023/11/27 02:44:12;;;;;;;16.47;14.83;;;;;;;;;;4948002;28;20233;-85
2023/11/27 02:46:38;;;;;;;16.97;15.33;;;;;;;;;;4947970;28;20214;-84
2023/11/27 02:49:05;;;;;;;16.37;14.97;;;;;;;;;;4945671;28;20353;-85
2023/11/27 02:51:31;;;;;;;18.13;16.10;;;;;;;;;;4967441;28;20297;-85
2023/11/27 02:54:01;;;;;;;18.93;16.67;;;;;;;;;;4936318;28;20218;-85
2023/11/27 02:56:27;;;;;;;16.53;14.93;;;;;;;;;;4944620;28;20246;-84
2023/11/27 02:58:53;;;;;;;21.27;16.13;;;;;;;;;;4951939;28;20302;-84
2023/11/27 03:01:24;;;;;;;16.97;15.37;;;;;;;;;;4935848;28;20223;-83
2023/11/27 03:03:55;;;;;;;16.13;14.63;;;;;;;;;;4964709;28;20276;-84
2023/11/27 03:06:20;;;;;;;20.10;15.37;;;;;;;;;;4954629;28;20225;-84
2023/11/27 03:08:46;;;;;;;19.73;15.60;;;;;;;;;;4943479;28;20218;-83
2023/11/27 03:11:11;;;;;;;18.53;16.00;;;;;;;;;;4938223;28;20233;-85
2023/11/27 03:13:39;;;;;;;16.63;14.80;;;;;;;;;;4956133;28;20242;-84
2023/11/27 03:16:10;;;;;;;30.47;18.07;;;;;;;;;;4969170;28;20280;-83
2023/11/27 03:18:36;;;;;;;16.23;14.80;;;;;;;;;;4951819;28;20708;-85
2023/11/27 03:21:05;;;;;;;16.00;14.33;;;;;;;;;;4957511;28;20250;-82
2023/11/27 03:23:31;;;;;;;16.27;14.77;;;;;;;;;;4965483;28;20250;-84
2023/11/27 03:26:01;;;;;;;16.60;15.17;;;;;;;;;;4951200;28;20219;-85
2023/11/27 03:28:30;;;;;;;16.67;15.00;;;;;;;;;;4951303;28;20230;-83
2023/11/27 03:30:58;;;;;;;18.17;16.30;;;;;;;;;;4965988;28;20222;-82
2023/11/27 03:33:26;;;;;;;17.17;15.47;;;;;;;;;;4948632;28;21006;-82
2023/11/27 03:35:54;;;;;;;16.27;14.67;;;;;;;;;;4969258;28;20270;-82
2023/11/27 03:38:24;;;;;;;18.17;16.47;;;;;;;;;;4963945;28;20675;-83
2023/11/27 03:40:50;;;;;;;17.73;15.97;;;;;;;;;;4945084;28;20725;-85
2023/11/27 03:43:19;;;;;;;19.17;16.10;;;;;;;;;;4938344;28;20231;-83
2023/11/27 03:45:44;;;;;;;16.83;15.13;;;;;;;;;;4937301;28;20245;-83
2023/11/27 03:48:12;;;;;;;17.67;15.90;;;;;;;;;;4951255;28;20851;-84
2023/11/27 03:50:40;;;;;;;17.40;15.70;;;;;;;;;;4947865;28;20223;-85
2023/11/27 03:53:05;;;;;;;17.90;16.00;;;;;;;;;;4932607;28;20214;-82
2023/11/27 03:55:35;;;;;;;17.13;15.33;;;;;;;;;;4940710;28;20284;-82
2023/11/27 03:58:06;;;;;;;17.20;15.40;;;;;;;;;;4936095;28;20555;-85
2023/11/27 04:04:20;;;;;;;15.97;14.43;;;;;;;;;;4969361;28;20763;-85
2023/11/27 04:06:45;;;;;;;17.83;15.40;;;;;;;;;;4959089;28;20238;-84
2023/11/27 04:09:13;;;;;;;18.67;15.67;;;;;;;;;;4951220;28;20219;-84
2023/11/27 04:11:41;;;;;;;17.33;15.37;;;;;;;;;;4973226;28;20248;-83
2023/11/27 04:14:07;;;;;;;15.00;13.60;;;;;;;;;;4952267;28;20234;-82
2023/11/27 04:16:32;;;;;;;17.70;14.63;;;;;;;;;;4963193;28;20226;-83
2023/11/27 04:19:00;;;;;;;16.60;14.83;;;;;;;;;;4927730;28;20228;-84
2023/11/27 04:21:28;;;;;;;17.20;13.50;;;;;;;;;;4950804;28;20605;-82
2023/11/27 04:23:54;;;;;;;15.47;13.87;;;;;;;;;;4935727;29;20230;-83
2023/11/27 04:26:25;;;;;;;13.97;12.57;;;;;;;;;;4956422;28;20217;-82
2023/11/27 04:28:50;;;;;;;14.70;13.40;;;;;;;;;;4956462;28;20219;-82
2023/11/27 04:31:23;;;;;;;14.33;12.67;;;;;;;;;;4943995;28;20218;-83
2023/11/27 04:33:51;;;;;;;14.30;12.87;;;;;;;;;;4938874;28;20629;-84
2023/11/27 04:36:18;;;;;;;13.90;12.53;;;;;;;;;;4957120;28;20265;-83
2023/11/27 04:38:44;;;;;;;14.60;13.10;;;;;;;;;;4933207;28;21200;-85
2023/11/27 04:41:12;;;;;;;13.83;12.33;;;;;;;;;;4954878;28;20230;-85
2023/11/27 04:43:40;;;;;;;13.27;11.93;;;;;;;;;;4956618;28;20309;-85
2023/11/27 04:46:07;;;;;;;12.57;11.27;;;;;;;;;;4945473;28;20338;-85
2023/11/27 04:48:33;;;;;;;12.60;11.27;;;;;;;;;;4969232;28;20265;-82
2023/11/27 04:51:01;;;;;;;11.70;10.60;;;;;;;;;;4948897;28;20314;-84
2023/11/27 04:53:29;;;;;;;11.03;10.07;;;;;;;;;;4934647;28;20242;-83
2023/11/27 04:55:57;;;;;;;11.97;10.87;;;;;;;;;;4925943;28;20222;-83
2023/11/27 04:58:24;;;;;;;10.70;9.70;;;;;;;;;;4935595;28;22515;-84
2023/11/27 05:00:50;;;;;;;11.70;10.60;;;;;;;;;;4952489;29;20231;-81
2023/11/27 05:03:20;;;;;;;11.27;10.17;;;;;;;;;;4918678;28;20297;-83
2023/11/27 05:05:48;;;;;;;11.67;10.47;;;;;;;;;;4954500;28;20700;-83
2023/11/27 05:08:14;;;;;;;10.97;9.77;;;;;;;;;;4952383;28;20218;-81
2023/11/27 05:10:40;;;;;;;11.57;10.40;;;;;;;;;;4955283;28;20709;-83
2023/11/27 05:13:07;;;;;;;10.60;9.60;;;;;;;;;;4939927;28;20222;-84
2023/11/27 05:15:35;;;;;;;12.50;11.30;;;;;;;;;;4948601;28;20226;-84
2023/11/27 05:18:04;;;;;;;12.17;10.87;;;;;;;;;;4944205;28;20210;-84
2023/11/27 05:20:35;;;;;;;13.07;11.13;;;;;;;;;;4954503;28;20281;-82
2023/11/27 05:23:03;;;;;;;10.53;9.50;;;;;;;;;;4960600;28;20233;-81
2023/11/27 05:25:28;;;;;;;11.63;10.60;;;;;;;;;;4935224;28;20253;-83
2023/11/27 05:27:59;;;;;;;13.27;11.97;;;;;;;;;;4963209;28;20222;-81
2023/11/27 05:30:29;;;;;;;12.60;11.33;;;;;;;;;;4937324;28;20233;-84
2023/11/27 05:32:55;;;;;;;12.27;11.03;;;;;;;;;;4963884;28;20703;-83
2023/11/27 05:35:23;;;;;;;12.80;11.50;;;;;;;;;;4951154;28;20309;-85
2023/11/27 05:37:49;;;;;;;13.13;11.93;;;;;;;;;;4949114;28;20218;-84
2023/11/27 05:40:22;;;;;;;13.17;11.97;;;;;;;;;;4967507;28;20649;-86
2023/11/27 05:42:49;;;;;;;14.40;12.90;;;;;;;;;;4953142;28;20261;-85
2023/11/27 05:45:15;;;;;;;12.77;11.50;;;;;;;;;;4944932;28;20838;-84
2023/11/27 05:47:43;;;;;;;15.67;13.90;;;;;;;;;;4969755;28;20250;-83
2023/11/27 05:50:12;;;;;;;16.00;13.40;;;;;;;;;;4949759;28;20215;-86
2023/11/27 05:52:38;;;;;;;18.60;13.50;;;;;;;;;;4938458;28;20248;-85
2023/11/27 05:55:04;;;;;;;15.17;13.60;;;;;;;;;;4935880;28;20234;-85
2023/11/27 05:57:34;;;;;;;16.97;15.33;;;;;;;;;;4943884;28;20305;-85
2023/11/27 06:00:02;;;;;;;18.73;16.80;;;;;;;;;;4960174;28;20320;-85
2023/11/27 06:02:38;;;;;;;20.40;17.10;;;;;;;;;;4944534;28;20232;-84
2023/11/27 06:05:06;;;;;;;18.43;16.30;;;;;;;;;;4967831;28;20289;-85
2023/11/27 06:07:34;;;;;;;19.30;17.20;;;;;;;;;;4965279;28;20245;-84
2023/11/27 06:10:03;;;;;;;20.70;18.50;;;;;;;;;;4933738;28;20900;-85
2023/11/27 06:12:29;;;;;;;23.47;21.00;;;;;;;;;;4958760;28;20261;-83
2023/11/27 06:14:54;;;;;;;22.80;20.10;;;;;;;;;;4928164;28;20599;-83
2023/11/27 06:17:20;;;;;;;22.97;20.50;;;;;;;;;;4936491;28;20225;-85
2023/11/27 06:19:49;;;;;;;23.30;20.77;;;;;;;;;;4948821;28;20230;-83
2023/11/27 06:22:17;;;;;;;25.80;23.20;;;;;;;;;;4935965;28;20211;-84
2023/11/27 06:24:42;;;;;;;28.27;24.77;;;;;;;;;;4945066;28;20232;-84
2023/11/27 06:27:10;;;;;;;31.93;25.47;;;;;;;;;;4931148;28;20307;-84
2023/11/27 06:29:38;;;;;;;28.73;25.70;;;;;;;;;;4967441;28;20230;-83
2023/11/27 06:32:09;;;;;;;34.20;28.73;;;;;;;;;;4934273;28;20214;-84
2023/11/27 06:34:37;;;;;;;33.23;27.63;;;;;;;;;;4957670;28;20249;-84
2023/11/27 06:37:06;;;;;;;31.77;27.77;;;;;;;;;;4945928;28;20211;-82
2023/11/27 06:39:32;;;;;;;37.80;29.63;;;;;;;;;;4954900;28;20241;-83
2023/11/27 06:41:58;;;;;;;40.00;29.13;;;;;;;;;;4969617;28;20214;-83
2023/11/27 06:44:24;;;;;;;37.77;27.80;;;;;;;;;;4968763;28;20316;-83
2023/11/27 06:46:51;;;;;;;32.77;28.17;;;;;;;;;;4941359;28;20519;-83
2023/11/27 06:49:17;;;;;;;35.73;28.10;;;;;;;;;;4940547;28;20301;-83
2023/11/27 06:51:42;;;;;;;35.43;27.47;;;;;;;;;;4956072;28;20279;-83
2023/11/27 06:54:10;;;;;;;42.97;28.33;;;;;;;;;;4928637;28;20605;-83
2023/11/27 06:56:36;;;;;;;42.03;31.70;;;;;;;;;;4968466;28;20237;-84
2023/11/27 06:59:04;;;;;;;46.93;29.47;;;;;;;;;;4942667;28;20280;-81
2023/11/27 07:01:32;;;;;;;40.97;29.37;;;;;;;;;;4930969;28;20281;-82
2023/11/27 07:04:00;;;;;;;37.63;31.20;;;;;;;;;;4940440;28;20238;-83
2023/11/27 07:06:27;;;;;;;50.93;42.80;;;;;;;;;;4936346;28;20769;-84
2023/11/27 07:08:53;;;;;;;42.70;32.70;;;;;;;;;;4969053;28;20211;-80
2023/11/27 07:11:25;;;;;;;38.23;31.77;;;;;;;;;;4961222;28;20264;-83
2023/11/27 07:13:50;;;;;;;44.20;36.40;;;;;;;;;;4943139;28;20254;-83
2023/11/27 07:16:17;;;;;;;44.80;34.00;;;;;;;;;;4961319;28;20218;-82
2023/11/27 07:18:46;;;;;;;37.23;32.43;;;;;;;;;;4957487;28;20584;-81
2023/11/27 07:21:12;;;;;;;40.47;32.63;;;;;;;;;;4960638;28;20250;-81
2023/11/27 07:23:40;;;;;;;45.33;34.23;;;;;;;;;;4937704;28;20266;-81
2023/11/27 07:26:08;;;;;;;40.27;34.83;;;;;;;;;;4926311;28;20211;-83
2023/11/27 07:28:42;;;;;;;39.27;32.33;;;;;;;;;;4958800;28;20231;-84
2023/11/27 07:31:09;;;;;;;42.53;34.97;;;;;;;;;;4936761;28;20230;-83
2023/11/27 07:33:35;;;;;;;46.13;35.23;;;;;;;;;;4951894;28;20253;-84
2023/11/27 07:36:01;;;;;;;43.33;36.27;;;;;;;;;;4956760;28;20222;-84
2023/11/27 07:38:26;;;;;;;42.07;37.23;;;;;;;;;;4962942;28;20221;-80
2023/11/27 07:40:52;;;;;;;45.50;37.33;;;;;;;;;;4989319;28;20234;-80
2023/11/27 07:43:20;;;;;;;43.60;37.27;;;;;;;;;;4978272;28;20262;-81
2023/11/27 07:45:51;;;;;;;51.20;38.77;;;;;;;;;;4970643;28;20226;-82
2023/11/27 07:48:19;;;;;;;47.77;37.90;;;;;;;;;;4982682;28;20222;-81
2023/11/27 07:50:49;;;;;;;46.70;37.60;;;;;;;;;;4991075;28;20250;-82
2023/11/27 07:53:17;;;;;;;51.77;37.83;;;;;;;;;;4958386;28;20290;-81
2023/11/27 07:55:46;;;;;;;50.00;38.70;;;;;;;;;;4965778;28;20207;-81
2023/11/27 07:58:15;;;;;;;45.97;37.67;;;;;;;;;;4954843;28;20253;-85
2023/11/27 08:00:41;;;;;;;45.13;38.40;;;;;;;;;;4939319;28;20237;-85
2023/11/27 08:03:10;;;;;;;46.83;37.60;;;;;;;;;;4941473;28;20248;-81
2023/11/27 08:05:36;;;;;;;45.87;35.07;;;;;;;;;;4966732;28;20334;-83
2023/11/27 08:08:04;;;;;;;40.20;35.53;;;;;;;;;;4939815;28;20218;-84
2023/11/27 08:10:30;;;;;;;40.07;34.47;;;;;;;;;;4938937;28;20921;-85
2023/11/27 08:12:58;;;;;;;45.60;34.87;;;;;;;;;;4941494;29;20219;-82
2023/11/27 08:15:24;;;;;;;42.23;34.00;;;;;;;;;;4952597;28;20265;-84
2023/11/27 08:17:50;;;;;;;39.00;34.73;;;;;;;;;;4930285;28;20222;-85
2023/11/27 08:20:15;;;;;;;45.10;35.70;;;;;;;;;;4969240;28;20290;-85
2023/11/27 08:22:44;;;;;;;48.97;36.77;;;;;;;;;;4975973;28;20298;-86
2023/11/27 08:25:10;;;;;;;48.07;37.20;;;;;;;;;;4923579;28;20215;-82
2023/11/27 08:27:38;;;;;;;46.40;37.90;;;;;;;;;;4954019;28;20250;-84
2023/11/27 08:30:09;;;;;;;41.67;35.77;;;;;;;;;;4939535;28;20226;-84
2023/11/27 08:32:35;;;;;;;47.43;34.93;;;;;;;;;;4947935;28;20357;-84
2023/11/27 08:35:01;;;;;;;45.00;37.93;;;;;;;;;;4962115;28;20222;-83
2023/11/27 08:37:26;;;;;;;51.23;38.23;;;;;;;;;;4947070;28;20222;-83
2023/11/27 08:39:56;;;;;;;45.47;36.63;;;;;;;;;;4933451;28;20214;-86
2023/11/27 08:42:22;;;;;;;44.33;37.27;;;;;;;;;;4939411;28;20790;-85
2023/11/27 08:44:47;;;;;;;44.57;35.97;;;;;;;;;;4957770;28;20226;-85
2023/11/27 08:47:13;;;;;;;51.17;37.57;;;;;;;;;;4933923;28;20230;-84
2023/11/27 08:49:38;;;;;;;55.80;38.73;;;;;;;;;;4940735;28;20225;-82
2023/11/27 08:52:04;;;;;;;45.00;36.27;;;;;;;;;;4947449;28;20286;-83
2023/11/27 08:54:32;;;;;;;42.97;36.60;;;;;;;;;;4946008;28;20260;-82
2023/11/27 08:56:58;;;;;;;51.53;39.27;;;;;;;;;;4943961;28;20623;-85
2023/11/27 08:59:25;;;;;;;50.20;39.20;;;;;;;;;;4936494;28;20329;-84
2023/11/27 09:01:55;;;;;;;48.90;37.63;;;;;;;;;;4937312;28;20211;-84
2023/11/27 09:04:22;;;;;;;43.80;37.03;;;;;;;;;;4948212;28;20233;-83
2023/11/27 09:06:50;;;;;;;47.43;36.17;;;;;;;;;;4939683;28;20233;-82
2023/11/27 09:09:15;;;;;;;45.33;36.37;;;;;;;;;;4952110;28;20231;-82
2023/11/27 09:11:41;;;;;;;49.13;39.47;;;;;;;;;;4950456;28;20233;-83
2023/11/27 09:14:12;;;;;;;46.43;35.77;;;;;;;;;;4957159;28;20586;-84
2023/11/27 09:16:37;;;;;;;50.33;36.87;;;;;;;;;;4939259;28;20794;-82
2023/11/27 09:19:10;;;;;;;46.77;37.33;;;;;;;;;;4945761;28;20221;-81
2023/11/27 09:21:36;;;;;;;43.10;36.33;;;;;;;;;;4950095;28;20223;-80
2023/11/27 09:24:04;;;;;;;45.90;35.73;;;;;;;;;;4970220;28;20234;-85
2023/11/27 09:26:32;;;;;;;45.60;36.37;;;;;;;;;;4962827;28;20222;-84
2023/11/27 09:29:02;;;;;;;45.40;36.73;;;;;;;;;;4948353;28;20215;-85
2023/11/27 09:31:30;;;;;;;39.80;34.63;;;;;;;;;;4947451;28;20298;-86
2023/11/27 09:33:58;;;;;;;41.73;34.93;;;;;;;;;;4946625;28;20276;-84
2023/11/27 09:36:26;;;;;;;42.33;34.63;;;;;;;;;;4961425;28;21178;-84
2023/11/27 09:38:52;;;;;;;40.13;34.27;;;;;;;;;;4937889;28;20219;-84
2023/11/27 09:41:17;;;;;;;41.23;34.90;;;;;;;;;;4957956;28;20572;-82
2023/11/27 09:43:45;;;;;;;42.70;33.10;;;;;;;;;;4959104;28;20242;-85
2023/11/27 09:46:17;;;;;;;37.83;33.27;;;;;;;;;;4949805;28;20305;-82
2023/11/27 09:48:48;;;;;;;37.80;31.47;;;;;;;;;;4948057;28;20233;-83
2023/11/27 09:51:13;;;;;;;38.77;33.40;;;;;;;;;;4949221;28;20227;-83
2023/11/27 09:53:57;;;;;;;34.80;31.10;;;;;;;;;;4947421;28;20248;-83
2023/11/27 09:56:28;;;;;;;35.70;31.93;;;;;;;;;;4965873;28;20218;-85
2023/11/27 09:58:59;;;;;;;31.77;28.37;;;;;;;;;;4972153;28;20228;-85
2023/11/27 10:01:30;;;;;;;37.03;31.40;;;;;;;;;;4964160;28;20241;-85
2023/11/27 10:04:00;;;;;;;32.43;29.10;;;;;;;;;;4950798;28;21008;-84
2023/11/27 10:06:33;;;;;;;33.10;29.50;;;;;;;;;;4953100;28;20760;-85
2023/11/27 10:09:07;;;;;;;32.50;28.97;;;;;;;;;;4949229;28;20688;-84
2023/11/27 10:11:33;;;;;;;33.03;29.63;;;;;;;;;;4955620;28;20225;-81
2023/11/27 10:14:08;;;;;;;33.80;27.37;;;;;;;;;;4959352;28;20222;-83
2023/11/27 10:16:43;;;;;;;30.07;26.80;;;;;;;;;;4933689;28;20217;-82
2023/11/27 10:19:13;;;;;;;28.40;25.37;;;;;;;;;;4953624;28;20222;-84
2023/11/27 10:21:42;;;;;;;27.07;24.17;;;;;;;;;;4946918;28;20237;-85
2023/11/27 10:24:10;;;;;;;26.10;23.50;;;;;;;;;;4939980;28;20234;-84
2023/11/27 10:26:38;;;;;;;28.17;24.03;;;;;;;;;;4976879;28;20644;-83
2023/11/27 10:29:07;;;;;;;25.27;22.67;;;;;;;;;;4922037;28;20218;-84
2023/11/27 10:31:39;;;;;;;27.57;24.87;;;;;;;;;;4955018;28;20234;-84
2023/11/27 10:34:10;;;;;;;26.70;23.93;;;;;;;;;;4942746;28;21010;-81
2023/11/27 10:36:36;;;;;;;25.87;23.27;;;;;;;;;;4939879;28;20269;-84
2023/11/27 10:39:04;;;;;;;25.83;23.33;;;;;;;;;;4932157;28;20219;-83
2023/11/27 10:41:30;;;;;;;25.77;23.07;;;;;;;;;;4971684;28;20226;-84
2023/11/27 10:43:58;;;;;;;25.87;23.07;;;;;;;;;;4957893;28;20233;-83
2023/11/27 10:46:29;;;;;;;32.87;25.07;;;;;;;;;;4949745;28;20231;-85
2023/11/27 10:49:01;;;;;;;25.23;22.73;;;;;;;;;;4934423;28;20230;-83
2023/11/27 10:51:30;;;;;;;27.07;24.33;;;;;;;;;;4949750;28;20229;-84
2023/11/27 10:53:56;;;;;;;25.40;22.80;;;;;;;;;;4935732;28;20233;-82
2023/11/27 10:56:21;;;;;;;26.17;23.57;;;;;;;;;;4943361;28;20250;-85
2023/11/27 10:58:47;;;;;;;26.30;23.70;;;;;;;;;;4938885;28;20234;-84
2023/11/27 11:01:15;;;;;;;24.10;21.57;;;;;;;;;;4927538;28;20233;-85
2023/11/27 11:03:42;;;;;;;22.80;20.37;;;;;;;;;;4935492;28;20314;-82
2023/11/27 11:06:10;;;;;;;25.50;22.97;;;;;;;;;;4937865;28;20222;-80
2023/11/27 11:08:36;;;;;;;23.87;20.20;;;;;;;;;;4939468;28;20229;-79
2023/11/27 11:11:06;;;;;;;23.50;21.23;;;;;;;;;;4952466;28;20211;-79
2023/11/27 11:13:33;;;;;;;23.80;21.33;;;;;;;;;;4965890;28;20215;-86
2023/11/27 11:16:13;;;;;;;23.00;21.00;;;;;;;;;;4937326;28;20761;-85
2023/11/27 11:18:51;;;;;;;23.53;21.23;;;;;;;;;;4946568;28;20231;-85
2023/11/27 11:21:19;;;;;;;22.90;20.50;;;;;;;;;;4951364;28;20653;-86
2023/11/27 11:24:08;;;;;;;23.53;21.37;;;;;;;;;;4947982;28;20234;-86
2023/11/27 11:27:07;;;;;;;21.63;19.57;;;;;;;;;;4923355;28;20254;-84
2023/11/27 11:29:34;;;;;;;20.93;19.07;;;;;;;;;;4933088;28;20230;-83
2023/11/27 11:32:04;;;;;;;21.17;19.27;;;;;;;;;;4922368;28;20222;-83
2023/11/27 11:35:02;;;;;;;21.80;19.60;;;;;;;;;;4927899;28;20252;-84
2023/11/27 11:37:32;;;;;;;19.43;17.73;;;;;;;;;;4943692;28;20221;-85
2023/11/27 11:39:58;;;;;;;19.10;17.43;;;;;;;;;;4937689;28;20230;-84
2023/11/27 11:42:29;;;;;;;19.07;17.27;;;;;;;;;;4939910;28;20265;-83
2023/11/27 11:45:16;;;;;;;19.57;17.73;;;;;;;;;;4936509;28;20218;-82
2023/11/27 11:47:42;;;;;;;19.00;17.30;;;;;;;;;;4963489;28;20285;-84
2023/11/27 11:50:25;;;;;;;19.30;17.47;;;;;;;;;;4943048;28;20218;-84
2023/11/27 11:52:56;;;;;;;19.30;17.50;;;;;;;;;;4947409;28;20301;-83
2023/11/27 11:55:30;;;;;;;19.40;17.60;;;;;;;;;;4940756;28;20208;-85
2023/11/27 11:58:28;;;;;;;17.40;15.70;;;;;;;;;;4936416;28;20226;-84
2023/11/27 12:01:08;;;;;;;24.03;21.73;;;;;;;;;;4974520;28;20230;-83
2023/11/27 12:03:36;;;;;;;22.43;20.23;;;;;;;;;;4949918;28;20279;-84
2023/11/27 12:06:13;;;;;;;18.37;16.73;;;;;;;;;;4961693;28;20816;-85
2023/11/27 12:08:53;;;;;;;17.10;15.47;;;;;;;;;;4972859;28;20260;-85
2023/11/27 12:11:22;;;;;;;17.23;15.73;;;;;;;;;;4975931;28;20218;-83
2023/11/27 12:13:51;;;;;;;16.80;15.37;;;;;;;;;;4959057;28;20223;-86
2023/11/27 12:16:21;;;;;;;16.23;14.57;;;;;;;;;;4965345;28;20222;-84
2023/11/27 12:18:57;;;;;;;14.93;13.63;;;;;;;;;;4931228;28;20735;-85
2023/11/27 12:21:28;;;;;;;14.53;13.07;;;;;;;;;;4954916;28;20218;-85
2023/11/27 12:23:58;;;;;;;14.23;12.93;;;;;;;;;;4957066;28;20230;-84
2023/11/27 12:26:25;;;;;;;16.57;14.03;;;;;;;;;;4943587;28;20227;-83
2023/11/27 12:28:52;;;;;;;14.40;13.07;;;;;;;;;;4949788;28;20249;-84
2023/11/27 12:31:21;;;;;;;13.27;12.17;;;;;;;;;;4947309;28;20219;-84
2023/11/27 12:33:47;;;;;;;14.80;13.40;;;;;;;;;;4952081;28;20226;-84
2023/11/27 12:36:14;;;;;;;13.87;12.47;;;;;;;;;;4937581;28;20396;-83
2023/11/27 12:38:42;;;;;;;14.37;12.97;;;;;;;;;;4952102;28;20744;-84
2023/11/27 12:41:50;;;;;;;12.03;11.03;;;;;;;;;;4945170;28;20233;-85
2023/11/27 12:44:19;;;;;;;12.70;11.60;;;;;;;;;;4964757;28;20222;-84
2023/11/27 12:46:52;;;;;;;12.47;11.37;;;;;;;;;;4954445;28;20237;-84
2023/11/27 12:49:21;;;;;;;12.97;11.83;;;;;;;;;;4940787;28;20256;-83
2023/11/27 12:52:10;;;;;;;12.03;10.97;;;;;;;;;;4949047;28;20219;-84
2023/11/27 12:54:36;;;;;;;12.30;11.17;;;;;;;;;;4954222;28;20234;-83
2023/11/27 12:57:05;;;;;;;12.07;11.07;;;;;;;;;;4950159;28;20273;-83
2023/11/27 12:59:46;;;;;;;12.17;11.03;;;;;;;;;;4950374;28;20261;-79
2023/11/27 13:02:16;;;;;;;12.57;11.50;;;;;;;;;;4949455;28;20687;-80
2023/11/27 13:04:42;;;;;;;13.00;11.77;;;;;;;;;;4960526;28;20378;-79
2023/11/27 13:07:12;;;;;;;11.83;10.80;;;;;;;;;;4963959;28;20222;-78
2023/11/27 13:09:38;;;;;;;11.50;10.30;;;;;;;;;;4955317;28;20222;-78
2023/11/27 13:12:18;;;;;;;11.77;10.73;;;;;;;;;;4966229;28;20822;-76
2023/11/27 13:14:49;;;;;;;12.10;10.90;;;;;;;;;;4946791;28;20289;-78
2023/11/27 13:17:20;;;;;;;11.13;10.23;;;;;;;;;;4964829;28;20225;-78
2023/11/27 13:19:51;;;;;;;12.37;11.07;;;;;;;;;;4946741;28;20245;-76
2023/11/27 13:22:19;;;;;;;11.00;10.10;;;;;;;;;;4938474;28;20233;-78
2023/11/27 13:24:45;;;;;;;10.40;9.57;;;;;;;;;;4930815;28;20321;-78
2023/11/27 13:27:24;;;;;;;11.17;10.23;;;;;;;;;;4933890;28;20222;-76
2023/11/27 13:29:50;;;;;;;11.00;10.10;;;;;;;;;;4949281;28;20794;-77
2023/11/27 13:32:16;;;;;;;9.50;8.70;;;;;;;;;;4930617;28;20266;-78
2023/11/27 13:34:43;;;;;;;7.70;7.20;;;;;;;;;;4947365;28;20302;-77
2023/11/27 13:37:10;;;;;;;8.73;8.00;;;;;;;;;;4960745;28;20222;-77
2023/11/27 13:39:41;;;;;;;41.43;36.97;;;;;;;;;;4953738;28;20242;-76
2023/11/27 13:42:09;;;;;;;18.03;16.30;;;;;;;;;;4929996;28;20675;-77
2023/11/27 13:44:36;;;;;;;39.50;31.97;;;;;;;;;;4933746;28;20236;-78
2023/11/27 13:47:01;;;;;;;10.53;9.53;;;;;;;;;;4963962;28;20659;-79
2023/11/27 13:49:27;;;;;;;7.93;7.33;;;;;;;;;;4964046;28;20234;-81
2023/11/27 13:52:01;;;;;;;7.60;7.00;;;;;;;;;;4953583;28;20218;-78
2023/11/27 13:54:27;;;;;;;7.20;6.60;;;;;;;;;;4939240;28;20334;-80
2023/11/27 13:56:59;;;;;;;8.20;7.30;;;;;;;;;;4951358;28;20619;-78
2023/11/27 13:59:34;;;;;;;7.27;6.57;;;;;;;;;;4949263;28;20222;-80
2023/11/27 14:02:10;;;;;;;6.50;6.03;;;;;;;;;;4957079;28;20618;-79
2023/11/27 14:04:53;;;;;;;6.57;6.07;;;;;;;;;;4970225;28;20238;-79
2023/11/27 14:07:24;;;;;;;6.63;6.03;;;;;;;;;;4935736;28;20304;-79
2023/11/27 14:12:26;;;;;;;5.47;5.07;;;;;;;;;;4940119;28;20215;-80
2023/11/27 14:15:05;;;;;;;6.90;6.30;;;;;;;;;;4967535;28;20238;-79
2023/11/27 14:17:34;;;;;;;7.20;6.60;;;;;;;;;;4934779;28;20255;-81
2023/11/27 14:31:21;;;;;;;5.20;4.80;;;;;;;;;;4928632;29;20227;-78
2023/11/27 14:33:47;;;;;;;4.70;4.37;;;;;;;;;;4913663;29;20904;-80
2023/11/27 14:36:17;;;;;;;4.90;4.30;;;;;;;;;;4931201;28;20276;-79
2023/11/27 14:38:46;;;;;;;4.70;4.30;;;;;;;;;;4948559;28;20233;-78
2023/11/27 14:41:13;;;;;;;4.70;4.40;;;;;;;;;;4980362;28;20236;-80
2023/11/27 14:43:39;;;;;;;4.27;3.97;;;;;;;;;;4953484;28;20770;-79
2023/11/27 14:46:14;;;;;;;3.77;3.57;;;;;;;;;;4953037;28;20313;-80